Time;durP1;ratioP1;P1;durP2;ratioP2;P2;SDS_P1;SDS_P2;PMS_P1;PMS_P2;Temp;Humidity;BMP_temperature;BMP_pressure;BME280_temperature;BME280_humidity;BME280_pressure;Samples;Min_cycle;Max_cycle;Signal;HPM_P1;HPM_P2
2023/01/22 00:01:25;;;;;;;7.90;7.20;;;;;;;21.64;38.07;94831.75;6157988;28;109877;-66
2023/01/22 00:04:28;;;;;;;7.27;6.57;;;;;;;21.65;38.09;94845.84;6148508;28;109300;-67
2023/01/22 00:07:31;;;;;;;7.70;7.10;;;;;;;21.63;38.43;94854.16;6163677;28;110225;-65
2023/01/22 00:10:35;;;;;;;7.70;7.00;;;;;;;21.63;38.19;94861.34;6151621;28;109311;-66
2023/01/22 00:13:39;;;;;;;7.50;6.80;;;;;;;21.63;38.15;94856.03;6162718;28;110260;-65
2023/01/22 00:16:42;;;;;;;7.10;6.50;;;;;;;21.63;38.25;94851.47;6151510;28;109987;-65
2023/01/22 00:19:45;;;;;;;7.23;6.53;;;;;;;21.61;38.47;94851.00;6146133;28;109558;-64
2023/01/22 00:22:50;;;;;;;7.60;6.90;;;;;;;21.60;38.23;94856.63;6147787;28;109075;-65
2023/01/22 00:26:02;;;;;;;6.70;6.10;;;;;;;21.61;38.28;94853.66;6151901;28;109137;-65
2023/01/22 00:29:05;;;;;;;6.90;6.20;;;;;;;21.61;38.27;94859.00;6148572;28;109170;-65
2023/01/22 00:32:08;;;;;;;7.30;6.60;;;;;;;21.61;38.11;94858.22;6151638;28;108999;-65
2023/01/22 00:35:11;;;;;;;7.47;6.77;;;;;;;21.59;38.33;94845.22;6157510;28;109193;-65
2023/01/22 00:38:14;;;;;;;6.57;5.97;;;;;;;21.48;38.11;94822.59;6157194;28;109221;-65
2023/01/22 00:41:20;;;;;;;6.60;6.00;;;;;;;21.58;38.10;94848.97;6151582;28;109893;-65
2023/01/22 00:44:25;;;;;;;6.30;5.70;;;;;;;21.56;37.69;94856.47;6146717;28;109028;-65
2023/01/22 00:47:28;;;;;;;5.93;5.43;;;;;;;21.58;37.68;94870.25;6163146;28;110124;-65
2023/01/22 00:50:33;;;;;;;6.27;5.73;;;;;;;21.59;38.04;94863.06;6152871;28;109148;-65
2023/01/22 00:53:36;;;;;;;6.50;5.90;;;;;;;21.59;37.59;94871.06;6155528;28;110051;-66
2023/01/22 00:56:41;;;;;;;7.47;6.77;;;;;;;21.59;37.84;94865.72;6149300;28;110123;-65
2023/01/22 00:59:44;;;;;;;6.20;5.70;;;;;;;21.58;37.80;94872.16;6158488;28;109628;-65
2023/01/22 01:06:14;;;;;;;6.03;5.53;;;;;;;21.58;37.48;94899.56;6141700;28;109978;-65
2023/01/22 01:09:17;;;;;;;6.60;6.00;;;;;;;21.58;37.54;94898.78;6148830;28;109279;-65
2023/01/22 01:12:21;;;;;;;6.43;5.93;;;;;;;21.57;37.90;94899.84;6154536;28;109949;-67
2023/01/22 01:15:24;;;;;;;6.10;5.60;;;;;;;21.56;37.63;94896.41;6153485;28;108793;-65
2023/01/22 01:18:27;;;;;;;6.53;6.00;;;;;;;21.56;37.54;94895.63;6138123;28;109001;-65
2023/01/22 01:21:31;;;;;;;6.73;6.13;;;;;;;21.55;37.33;94892.19;6152738;28;109066;-65
2023/01/22 01:24:35;;;;;;;5.60;5.10;;;;;;;21.54;37.88;94890.63;6145330;28;110250;-65
2023/01/22 01:27:39;;;;;;;6.30;5.80;;;;;;;21.53;37.44;94905.00;6151832;28;109003;-66
2023/01/22 01:30:42;;;;;;;6.10;5.50;;;;;;;21.54;37.78;94917.25;6135088;28;109579;-65
2023/01/22 01:33:46;;;;;;;6.00;5.40;;;;;;;21.52;37.73;94914.88;6151316;28;109127;-65
2023/01/22 01:36:49;;;;;;;6.10;5.50;;;;;;;21.52;37.31;94919.41;6156422;28;110134;-64
2023/01/22 01:39:52;;;;;;;5.63;5.13;;;;;;;21.52;37.44;94914.09;6134983;28;109156;-65
2023/01/22 01:42:57;;;;;;;6.93;6.23;;;;;;;21.52;37.26;94914.09;6152355;28;109200;-66
2023/01/22 01:46:02;;;;;;;6.20;5.70;;;;;;;21.49;37.53;94918.13;6159500;28;112277;-65
2023/01/22 01:49:07;;;;;;;5.60;5.10;;;;;;;21.50;37.74;94917.03;6158390;28;109314;-65
2023/01/22 01:52:13;;;;;;;4.90;4.50;;;;;;;21.51;37.19;94917.84;6149870;28;111597;-64
2023/01/22 01:55:19;;;;;;;5.50;5.10;;;;;;;21.50;37.38;94922.38;6152609;28;109074;-65
2023/01/22 01:58:29;;;;;;;5.37;4.97;;;;;;;21.51;37.34;94910.66;6161447;28;110544;-67
2023/01/22 02:01:32;;;;;;;5.20;4.80;;;;;;;21.51;37.50;94920.50;6156264;28;109114;-66
2023/01/22 02:04:35;;;;;;;5.70;5.20;;;;;;;21.52;37.39;94920.22;6139863;28;109497;-66
2023/01/22 02:07:40;;;;;;;5.70;5.27;;;;;;;21.51;37.42;94915.97;6147446;28;109370;-65
2023/01/22 02:10:44;;;;;;;5.53;5.10;;;;;;;21.50;37.57;94909.06;6151969;28;110171;-65
2023/01/22 02:13:54;;;;;;;4.80;4.40;;;;;;;21.50;37.46;94913.59;6151450;28;108914;-65
2023/01/22 02:17:00;;;;;;;4.93;4.53;;;;;;;21.50;37.41;94919.69;6162097;28;111673;-65
2023/01/22 02:20:04;;;;;;;5.57;5.07;;;;;;;21.51;37.32;94925.84;6166416;28;109556;-66
2023/01/22 02:23:08;;;;;;;5.07;4.67;;;;;;;21.44;37.50;94917.47;6156105;28;109079;-65
2023/01/22 02:26:14;;;;;;;4.57;4.27;;;;;;;21.48;37.28;94929.88;6149659;28;110291;-65
2023/01/22 02:29:17;;;;;;;4.90;4.60;;;;;;;21.48;37.23;94931.75;6165852;28;110090;-65
2023/01/22 02:32:20;;;;;;;4.60;4.20;;;;;;;21.51;37.36;94939.16;6155128;28;109116;-65
2023/01/22 02:35:26;;;;;;;4.70;4.30;;;;;;;21.50;37.25;94937.56;6150490;28;109089;-65
2023/01/22 02:38:30;;;;;;;4.63;4.33;;;;;;;21.46;37.40;94933.94;6155029;28;109190;-66
2023/01/22 02:41:34;;;;;;;4.60;4.20;;;;;;;21.48;36.98;94935.19;6153348;28;109292;-66
2023/01/22 02:44:37;;;;;;;4.77;4.37;;;;;;;21.48;37.09;94935.19;6157963;28;109084;-66
2023/01/22 02:47:40;;;;;;;4.60;4.20;;;;;;;21.46;36.99;94937.38;6141865;28;109244;-65
2023/01/22 02:50:44;;;;;;;4.40;4.00;;;;;;;21.47;37.34;94941.63;6162741;28;109554;-65
2023/01/22 02:53:50;;;;;;;5.17;4.67;;;;;;;21.40;37.38;94927.16;6145898;28;109143;-66
2023/01/22 02:56:53;;;;;;;4.50;4.10;;;;;;;21.46;37.03;94942.69;6149902;28;110454;-62
2023/01/22 02:59:56;;;;;;;4.43;4.13;;;;;;;21.46;36.85;94945.38;6136004;28;109591;-64
2023/01/22 03:02:59;;;;;;;3.83;3.53;;;;;;;21.44;37.10;94944.09;6152983;28;109121;-64
2023/01/22 03:06:02;;;;;;;4.30;4.00;;;;;;;21.47;37.04;94951.47;6164285;28;110341;-62
2023/01/22 03:09:07;;;;;;;4.17;3.77;;;;;;;21.42;36.89;94948.94;6154903;28;110173;-62
2023/01/22 03:12:10;;;;;;;4.17;3.87;;;;;;;21.46;37.28;94942.69;6141931;28;109445;-63
2023/01/22 03:22:03;;;;;;;4.43;4.10;;;;;;;21.38;37.17;94942.66;6148392;28;109260;-63
2023/01/22 03:25:08;;;;;;;4.10;3.80;;;;;;;21.46;36.93;94961.34;6153672;28;109003;-64
2023/01/22 03:28:17;;;;;;;4.03;3.73;;;;;;;21.46;37.29;94958.69;6143840;28;109360;-63
2023/01/22 03:31:20;;;;;;;4.40;4.00;;;;;;;21.46;36.97;94961.34;6143207;28;109840;-64
2023/01/22 03:34:25;;;;;;;3.50;3.20;;;;;;;21.45;36.90;94962.44;6145711;28;109799;-63
2023/01/22 03:37:28;;;;;;;3.53;3.23;;;;;;;21.45;37.06;94954.44;6159309;28;110334;-63
2023/01/22 03:40:33;;;;;;;3.37;3.10;;;;;;;21.45;37.09;94946.47;6158679;28;109064;-63
2023/01/22 03:43:36;;;;;;;6.30;3.93;;;;;;;21.45;36.86;94951.00;6147318;28;110081;-65
2023/01/22 03:46:39;;;;;;;3.77;3.47;;;;;;;21.43;36.88;94943.31;6137110;28;108998;-64
2023/01/22 03:49:45;;;;;;;4.80;3.70;;;;;;;21.46;37.08;94953.34;6148585;28;109012;-63
2023/01/22 03:52:48;;;;;;;3.40;3.20;;;;;;;21.45;37.12;94948.34;6161703;28;109395;-63
2023/01/22 03:56:00;;;;;;;3.20;3.00;;;;;;;21.43;37.04;94945.97;6139514;28;109100;-63
2023/01/22 03:59:03;;;;;;;3.80;3.50;;;;;;;21.45;36.66;94956.31;6149248;28;109332;-62
2023/01/22 04:02:06;;;;;;;3.53;3.23;;;;;;;21.44;36.96;94955.53;6154986;28;111745;-63
2023/01/22 04:05:09;;;;;;;4.27;3.30;;;;;;;21.44;36.92;94960.06;6150293;28;109216;-63
2023/01/22 04:08:14;;;;;;;3.87;3.57;;;;;;;21.45;36.85;94958.97;6138949;28;109110;-62
2023/01/22 04:11:19;;;;;;;3.33;3.03;;;;;;;21.44;36.79;94960.06;6163399;28;109622;-62
2023/01/22 04:14:22;;;;;;;3.60;3.27;;;;;;;21.43;36.67;94975.25;6163599;28;109129;-64
2023/01/22 04:17:25;;;;;;;3.60;3.30;;;;;;;21.46;37.04;94976.53;6148104;28;110105;-64
2023/01/22 04:20:28;;;;;;;3.37;3.07;;;;;;;21.44;36.79;94976.84;6137610;28;109421;-62
2023/01/22 04:23:32;;;;;;;3.67;3.37;;;;;;;21.39;36.48;94971.63;6151651;28;111068;-63
2023/01/22 04:26:36;;;;;;;3.57;3.27;;;;;;;21.44;36.92;94984.03;6154825;28;109209;-63
2023/01/22 04:29:39;;;;;;;3.63;3.33;;;;;;;21.43;36.81;94980.59;6155432;28;110274;-63
2023/01/22 04:32:42;;;;;;;3.80;3.13;;;;;;;21.42;36.93;94980.88;6154758;28;110729;-63
2023/01/22 04:35:49;;;;;;;2.93;2.73;;;;;;;21.41;36.72;94993.41;6147287;28;109514;-65
2023/01/22 04:38:52;;;;;;;3.20;3.00;;;;;;;21.37;36.61;94994.31;6148629;28;109169;-64
2023/01/22 04:41:57;;;;;;;3.20;3.00;;;;;;;21.41;36.92;94997.94;6132795;28;108981;-63
2023/01/22 04:45:00;;;;;;;3.50;3.20;;;;;;;21.43;36.77;95014.41;6157523;28;109107;-63
2023/01/22 04:48:03;;;;;;;2.80;2.60;;;;;;;21.41;36.84;95009.38;6160727;28;109994;-64
2023/01/22 04:51:06;;;;;;;3.17;2.87;;;;;;;21.40;36.52;95002.50;6162815;28;109191;-63
2023/01/22 04:54:09;;;;;;;3.30;3.10;;;;;;;21.41;37.08;95009.38;6153512;28;109982;-63
2023/01/22 04:57:14;;;;;;;3.03;2.73;;;;;;;21.41;36.38;95009.38;6159694;28;110370;-64
2023/01/22 05:00:19;;;;;;;3.03;2.83;;;;;;;21.41;36.71;95020.03;6159745;28;109318;-63
2023/01/22 05:03:22;;;;;;;2.87;2.67;;;;;;;21.26;36.72;95001.75;6149411;28;110121;-65
2023/01/22 05:06:25;;;;;;;3.70;3.27;;;;;;;21.42;36.45;95031.47;6150381;28;109216;-63
2023/01/22 05:09:28;;;;;;;2.70;2.50;;;;;;;21.42;36.80;95037.59;6147870;28;110228;-63
2023/01/22 05:12:34;;;;;;;3.30;3.10;;;;;;;21.41;36.68;95038.66;6159412;28;112565;-63
2023/01/22 05:15:37;;;;;;;2.67;2.47;;;;;;;21.33;36.36;95031.38;6148950;28;111194;-63
2023/01/22 05:18:40;;;;;;;2.80;2.60;;;;;;;21.42;36.62;95045.56;6157188;28;109024;-63
2023/01/22 05:21:43;;;;;;;2.93;2.73;;;;;;;21.42;36.40;95056.22;6149048;28;109431;-62
2023/01/22 05:24:46;;;;;;;4.03;3.20;;;;;;;21.41;36.84;95056.50;6151498;28;109346;-63
2023/01/22 05:27:53;;;;;;;2.73;2.43;;;;;;;21.40;36.80;95066.38;6150336;28;109252;-63
2023/01/22 05:30:56;;;;;;;3.00;2.80;;;;;;;21.40;36.48;95063.72;6151215;28;110045;-64
2023/01/22 05:33:59;;;;;;;3.03;2.70;;;;;;;21.38;36.36;95079.19;6160356;28;109137;-63
2023/01/22 05:37:04;;;;;;;3.50;3.20;;;;;;;21.39;36.37;95086.09;6151334;28;110861;-63
2023/01/22 05:40:08;;;;;;;2.70;2.50;;;;;;;21.38;36.56;95095.19;6144044;28;111861;-62
2023/01/22 05:43:13;;;;;;;3.30;3.10;;;;;;;21.38;36.36;95100.50;6139887;28;110371;-64
2023/01/22 05:46:19;;;;;;;2.90;2.70;;;;;;;21.39;36.50;95103.94;6161087;28;109016;-63
2023/01/22 05:49:22;;;;;;;2.90;2.70;;;;;;;21.36;36.70;95105.34;6145697;28;109922;-63
2023/01/22 05:52:28;;;;;;;3.07;2.80;;;;;;;21.36;36.53;95105.34;6141714;28;109169;-62
2023/01/22 05:55:32;;;;;;;3.07;2.87;;;;;;;21.38;36.46;95108.47;6158608;28;108816;-63
2023/01/22 05:58:36;;;;;;;3.00;2.80;;;;;;;21.39;36.35;95123.38;6154527;28;109958;-62
2023/01/22 06:01:39;;;;;;;3.00;2.60;;;;;;;21.38;36.72;95119.13;6141361;28;110845;-63
2023/01/22 06:04:43;;;;;;;2.87;2.67;;;;;;;21.39;36.63;95112.72;6155273;28;110118;-63
2023/01/22 06:07:45;;;;;;;2.93;2.73;;;;;;;21.37;36.48;95122.09;6143417;28;109334;-63
2023/01/22 06:10:49;;;;;;;3.20;3.00;;;;;;;21.40;36.47;95132.94;6150123;28;109254;-63
2023/01/22 06:13:53;;;;;;;3.30;3.00;;;;;;;21.40;36.36;95135.59;6144828;28;109277;-63
2023/01/22 06:16:56;;;;;;;3.27;3.07;;;;;;;21.38;36.45;95145.75;6160869;28;109239;-63
2023/01/22 06:20:01;;;;;;;3.37;3.07;;;;;;;21.38;36.60;95143.09;6160094;28;109070;-63
2023/01/22 06:23:07;;;;;;;3.33;3.03;;;;;;;21.40;36.28;95151.56;6153874;28;109148;-63
2023/01/22 06:26:10;;;;;;;3.20;2.97;;;;;;;21.35;36.66;95141.03;6145347;28;109190;-63
2023/01/22 06:29:14;;;;;;;2.77;2.57;;;;;;;21.41;36.34;95155.00;6145394;28;108950;-64
2023/01/22 06:32:17;;;;;;;3.33;2.90;;;;;;;21.42;36.20;95153.94;6141641;28;109327;-64
2023/01/22 06:35:20;;;;;;;3.20;2.90;;;;;;;21.40;36.17;95162.22;6146614;28;108818;-63
2023/01/22 06:38:24;;;;;;;3.70;3.40;;;;;;;21.42;36.11;95165.34;6159066;28;109165;-63
2023/01/22 06:41:27;;;;;;;3.37;3.07;;;;;;;21.44;36.44;95170.38;6160403;28;109380;-64
2023/01/22 06:44:33;;;;;;;3.23;2.93;;;;;;;21.44;36.03;95171.19;6160383;28;108972;-62
2023/01/22 06:47:43;;;;;;;3.50;3.20;;;;;;;21.44;36.46;95168.50;6147917;28;109137;-63
2023/01/22 06:50:48;;;;;;;3.50;3.20;;;;;;;21.41;36.40;95166.44;6155777;28;109104;-62
2023/01/22 06:53:54;;;;;;;3.33;3.00;;;;;;;21.46;36.40;95184.19;6153186;28;109243;-61
2023/01/22 06:56:57;;;;;;;3.63;3.33;;;;;;;21.47;36.48;95185.75;6156215;28;109627;-61
2023/01/22 07:00:03;;;;;;;5.03;3.90;;;;;;;21.44;35.93;95173.06;6150404;28;111057;-61
2023/01/22 07:03:15;;;;;;;3.57;3.27;;;;;;;21.51;36.28;95194.75;6151417;28;110077;-61
2023/01/22 07:06:21;;;;;;;3.60;3.00;;;;;;;21.50;36.46;95204.59;6162704;28;109473;-61
2023/01/22 07:09:24;;;;;;;3.50;3.20;;;;;;;21.49;36.29;95196.91;6139391;28;109927;-63
2023/01/22 07:12:27;;;;;;;3.67;3.40;;;;;;;21.49;36.54;95196.91;6144077;28;110095;-62
2023/01/22 07:15:32;;;;;;;3.50;3.20;;;;;;;21.48;36.03;95200.66;6152303;28;108999;-61
2023/01/22 07:18:35;;;;;;;4.00;3.60;;;;;;;21.50;36.30;95209.91;6162739;28;109456;-65
2023/01/22 07:21:38;;;;;;;8.50;7.77;;;;;;;21.12;36.53;95201.34;6153773;28;109856;-62
2023/01/22 07:24:41;;;;;;;9.53;8.73;;;;;;;20.77;36.79;95205.41;6163747;28;110518;-63
2023/01/22 07:27:47;;;;;;;9.80;8.90;;;;;;;20.52;36.85;95198.69;6152903;28;109024;-61
2023/01/22 07:30:55;;;;;;;9.30;8.50;;;;;;;20.37;36.98;95200.78;6153111;28;110293;-61
2023/01/22 07:34:00;;;;;;;9.67;8.83;;;;;;;20.27;36.88;95188.44;6157147;28;109319;-61
2023/01/22 07:37:03;;;;;;;10.87;9.73;;;;;;;20.48;37.02;95194.22;6154599;28;109528;-64
2023/01/22 07:40:09;;;;;;;11.10;10.10;;;;;;;20.78;38.12;95217.63;6164264;28;109446;-64
2023/01/22 07:43:13;;;;;;;10.30;9.40;;;;;;;20.73;36.25;95209.75;6144020;28;109724;-66
2023/01/22 07:46:18;;;;;;;8.53;7.93;;;;;;;20.54;36.54;95215.13;6155649;28;110132;-65
2023/01/22 07:49:21;;;;;;;8.67;7.77;;;;;;;20.34;36.23;95222.63;6162081;28;109068;-64
2023/01/22 07:52:24;;;;;;;10.20;6.67;;;;;;;20.13;36.69;95224.75;6157299;28;109562;-64
2023/01/22 07:55:28;;;;;;;10.80;6.40;;;;;;;20.28;36.76;95227.22;6152768;28;109213;-65
2023/01/22 07:58:31;;;;;;;7.13;6.50;;;;;;;20.25;36.52;95227.81;6163834;28;109226;-65
2023/01/22 08:01:35;;;;;;;6.30;5.70;;;;;;;20.28;36.46;95229.88;6165039;28;108996;-65
2023/01/22 08:04:39;;;;;;;6.30;5.60;;;;;;;20.54;36.23;95233.72;6164303;28;109473;-64
2023/01/22 08:07:42;;;;;;;10.97;7.70;;;;;;;20.68;36.28;95244.41;6154553;28;109249;-64
2023/01/22 08:10:45;;;;;;;12.30;10.07;;;;;;;20.76;36.00;95237.63;6157481;28;108916;-64
2023/01/22 08:13:48;;;;;;;17.10;15.37;;;;;;;20.69;35.79;95247.88;6139917;28;109207;-64
2023/01/22 08:16:53;;;;;;;19.17;15.23;;;;;;;20.74;36.22;95253.09;6150323;28;109046;-65
2023/01/22 08:19:56;;;;;;;18.47;16.57;;;;;;;20.66;36.35;95251.88;6157561;28;109200;-65
2023/01/22 08:22:59;;;;;;;21.93;19.77;;;;;;;20.78;36.55;95251.41;6164006;28;109254;-64
2023/01/22 08:26:03;;;;;;;20.57;17.87;;;;;;;20.70;36.00;95241.47;6152388;28;108972;-64
2023/01/22 08:29:06;;;;;;;31.33;20.80;;;;;;;20.61;36.44;95258.06;6142023;28;109117;-64
2023/01/22 08:32:11;;;;;;;57.50;20.67;;;;;;;20.64;37.11;95267.31;6163757;28;109040;-63
2023/01/22 08:35:14;;;;;;;61.23;21.53;;;;;;;20.72;37.61;95261.34;6163433;28;109029;-63
2023/01/22 08:38:17;;;;;;;29.20;18.67;;;;;;;20.72;36.94;95261.34;6162680;28;109112;-65
2023/01/22 08:41:20;;;;;;;18.97;17.07;;;;;;;20.78;36.58;95259.41;6151356;28;109376;-65
2023/01/22 08:44:24;;;;;;;19.33;17.30;;;;;;;20.84;36.58;95255.59;6163444;28;110020;-65
2023/01/22 08:47:30;;;;;;;19.17;17.27;;;;;;;20.74;36.82;95255.75;6163207;28;109120;-65
2023/01/22 08:50:33;;;;;;;21.03;18.13;;;;;;;20.67;37.60;95242.84;6160559;28;110196;-65
2023/01/22 08:53:37;;;;;;;17.13;15.33;;;;;;;21.06;37.84;95257.63;6154719;28;110150;-66
2023/01/22 08:56:42;;;;;;;17.63;15.80;;;;;;;21.20;37.84;95253.13;6162401;28;109071;-65
2023/01/22 08:59:45;;;;;;;17.07;15.37;;;;;;;21.32;37.93;95266.72;6114402;28;109149;-64
2023/01/22 09:03:04;;;;;;;18.57;14.60;;;;;;;21.42;37.91;95265.75;6103827;28;109543;-62
2023/01/22 09:06:07;;;;;;;20.63;13.33;;;;;;;21.43;38.15;95260.13;6114120;28;108877;-63
2023/01/22 09:09:10;;;;;;;15.23;13.00;;;;;;;21.55;38.98;95261.50;6114053;28;109284;-63
2023/01/22 09:12:13;;;;;;;15.23;12.83;;;;;;;21.65;39.24;95261.28;6113321;28;112889;-63
2023/01/22 09:15:16;;;;;;;13.30;11.53;;;;;;;21.67;39.49;95262.56;6098080;28;109063;-64
2023/01/22 09:18:20;;;;;;;12.90;11.70;;;;;;;21.63;39.79;95242.16;6114435;28;110170;-64
2023/01/22 09:21:23;;;;;;;12.90;11.60;;;;;;;21.73;40.50;95249.94;6113348;28;108963;-64
2023/01/22 09:24:27;;;;;;;15.20;11.70;;;;;;;21.80;40.81;95255.66;6113541;28;109348;-63
2023/01/22 09:27:29;;;;;;;16.00;10.90;;;;;;;21.80;41.23;95255.66;6092229;28;109901;-63
2023/01/22 09:30:32;;;;;;;15.80;12.00;;;;;;;21.86;41.25;95254.50;6113306;28;109090;-63
2023/01/22 09:33:37;;;;;;;15.17;11.97;;;;;;;21.90;41.78;95260.81;6113710;28;109510;-63
2023/01/22 09:36:42;;;;;;;14.60;12.00;;;;;;;21.87;41.60;95250.75;6107313;28;109165;-63
2023/01/22 09:39:51;;;;;;;16.13;12.30;;;;;;;22.02;42.10;95262.97;6112642;28;109210;-64
2023/01/22 09:43:05;;;;;;;25.23;13.63;;;;;;;22.08;43.94;95261.75;6113713;28;109220;-65
2023/01/22 09:46:16;;;;;;;19.23;11.90;;;;;;;22.17;45.35;95253.81;6113500;28;108764;-64
2023/01/22 09:49:25;;;;;;;12.33;11.00;;;;;;;22.19;44.86;95236.47;6103662;28;109142;-64
2023/01/22 09:52:32;;;;;;;12.77;11.50;;;;;;;22.14;44.96;95241.88;6112978;28;108897;-66
2023/01/22 09:55:42;;;;;;;13.97;11.43;;;;;;;22.02;44.47;95252.31;6113733;28;110102;-65
2023/01/22 09:58:47;;;;;;;18.03;12.63;;;;;;;22.00;44.12;95244.59;6144972;28;110123;-63
2023/01/22 10:01:55;;;;;;;11.67;10.43;;;;;;;22.12;45.24;95246.75;6154382;28;110481;-65
2023/01/22 10:05:03;;;;;;;13.00;10.90;;;;;;;21.96;44.23;95238.28;6138080;28;110099;-65
2023/01/22 10:08:12;;;;;;;11.80;10.43;;;;;;;21.87;44.07;95237.44;6158863;28;109055;-64
2023/01/22 10:11:15;;;;;;;10.70;9.70;;;;;;;21.84;43.59;95240.66;6151016;28;109632;-64
2023/01/22 10:14:21;;;;;;;12.53;10.47;;;;;;;21.78;43.02;95242.63;6157444;28;109600;-64
2023/01/22 10:17:30;;;;;;;15.03;10.20;;;;;;;21.78;42.52;95247.16;6161885;28;109183;-64
2023/01/22 10:20:38;;;;;;;10.63;9.53;;;;;;;21.75;42.33;95247.78;6161463;28;109007;-64
2023/01/22 10:23:42;;;;;;;11.13;9.90;;;;;;;21.74;42.04;95251.53;6148528;28;109829;-64
2023/01/22 10:26:49;;;;;;;11.10;10.07;;;;;;;21.71;41.32;95250.25;6157721;28;109070;-64
2023/01/22 10:30:01;;;;;;;9.97;8.97;;;;;;;21.72;41.18;95245.72;6160370;28;109120;-66
2023/01/22 10:33:06;;;;;;;10.43;9.53;;;;;;;21.70;41.25;95248.69;6141019;28;109207;-64
2023/01/22 10:36:14;;;;;;;10.60;9.50;;;;;;;21.69;41.09;95243.66;6131934;28;109263;-66
2023/01/22 10:39:19;;;;;;;9.77;8.00;;;;;;;21.66;40.99;95239.69;6142284;28;110141;-64
2023/01/22 10:42:27;;;;;;;9.20;8.30;;;;;;;21.58;40.80;95256.38;6158759;28;108876;-65
2023/01/22 10:45:30;;;;;;;7.63;6.93;;;;;;;21.20;39.45;95242.47;6152192;28;109342;-64
2023/01/22 10:48:34;;;;;;;7.30;6.70;;;;;;;21.20;39.47;95247.78;6164997;28;109168;-65
2023/01/22 10:51:41;;;;;;;7.70;7.00;;;;;;;21.23;39.69;95249.84;6162346;28;110389;-65
2023/01/22 10:54:50;;;;;;;7.10;6.50;;;;;;;21.12;38.89;95245.78;6162588;28;109036;-66
2023/01/22 10:57:58;;;;;;;7.00;6.40;;;;;;;21.17;38.63;95251.03;6150278;28;110047;-64
2023/01/22 11:01:06;;;;;;;6.73;6.13;;;;;;;21.33;38.39;95240.88;6164179;28;109211;-65
2023/01/22 11:04:13;;;;;;;6.30;5.47;;;;;;;21.51;38.23;95242.69;6165288;28;109029;-63
2023/01/22 11:07:22;;;;;;;6.40;5.90;;;;;;;21.65;39.06;95258.63;6159555;28;109027;-63
2023/01/22 11:10:40;;;;;;;5.90;5.40;;;;;;;21.76;38.59;95258.13;6135904;28;110118;-64
2023/01/22 11:13:50;;;;;;;6.03;5.43;;;;;;;21.87;38.49;95255.28;6162166;28;109033;-65
2023/01/22 11:16:59;;;;;;;6.17;5.67;;;;;;;21.91;38.67;95262.38;6163781;28;110087;-65
2023/01/22 11:20:11;;;;;;;7.13;5.60;;;;;;;21.85;39.43;95263.59;6147305;28;108793;-65
2023/01/22 11:23:24;;;;;;;7.20;6.13;;;;;;;21.74;38.97;95262.19;6164802;28;109957;-64
2023/01/22 11:26:40;;;;;;;6.00;5.40;;;;;;;21.77;38.96;95257.03;6164559;28;109178;-63
2023/01/22 11:30:13;;;;;;;6.27;5.50;;;;;;;21.79;39.10;95257.53;6159025;28;109694;-64
2023/01/22 11:33:32;;;;;;;6.60;5.67;;;;;;;21.86;38.76;95249.19;6150476;28;109962;-64
2023/01/22 11:36:40;;;;;;;6.50;5.90;;;;;;;21.88;39.19;95244.34;6150533;28;109184;-63
2023/01/22 11:39:58;;;;;;;5.70;5.20;;;;;;;21.88;39.51;95240.88;6152194;28;109447;-64
2023/01/22 11:43:17;;;;;;;5.93;5.37;;;;;;;21.89;39.48;95253.91;6141998;28;110122;-63
2023/01/22 11:46:32;;;;;;;6.80;5.50;;;;;;;21.86;40.05;95243.06;6151870;28;113714;-64
2023/01/22 11:49:46;;;;;;;5.90;5.27;;;;;;;21.83;39.85;95233.75;6153088;28;109169;-64
2023/01/22 11:52:57;;;;;;;6.27;5.67;;;;;;;21.88;39.70;95243.53;6148567;28;109186;-63
2023/01/22 11:56:17;;;;;;;8.03;6.50;;;;;;;21.94;40.00;95251.13;6152738;28;109173;-63
2023/01/22 11:59:34;;;;;;;7.10;5.37;;;;;;;21.99;39.80;95251.00;6162085;28;109123;-64
2023/01/22 12:03:16;;;;;;;5.63;5.07;;;;;;;21.94;39.57;95247.66;6164530;28;109324;-64
2023/01/22 12:06:39;;;;;;;9.23;5.07;;;;;;;21.97;39.75;95257.72;6153690;28;109342;-63
2023/01/22 12:09:52;;;;;;;8.40;5.50;;;;;;;21.99;39.67;95252.88;6161212;28;109244;-63
2023/01/22 12:13:06;;;;;;;7.57;5.27;;;;;;;22.00;39.65;95251.78;6154245;28;109374;-64
2023/01/22 12:16:21;;;;;;;5.63;5.07;;;;;;;22.03;39.47;95257.34;6145186;28;110278;-63
2023/01/22 12:19:37;;;;;;;7.10;5.00;;;;;;;21.98;39.91;95246.75;6147399;28;110163;-64
2023/01/22 12:22:47;;;;;;;6.57;5.63;;;;;;;22.00;39.73;95255.25;6160812;28;108948;-65
2023/01/22 12:25:56;;;;;;;8.20;5.13;;;;;;;22.00;40.15;95262.44;6162452;28;110194;-65
2023/01/22 12:29:16;;;;;;;6.23;5.30;;;;;;;22.00;40.20;95259.78;6153566;28;109433;-64
2023/01/22 12:32:23;;;;;;;6.67;5.07;;;;;;;21.98;40.27;95254.75;6163252;28;109076;-63
2023/01/22 12:35:29;;;;;;;5.50;5.00;;;;;;;21.97;40.01;95255.84;6162459;28;109161;-63
2023/01/22 12:38:41;;;;;;;5.40;4.90;;;;;;;21.98;40.48;95270.75;6159133;28;108815;-64
2023/01/22 12:41:52;;;;;;;5.60;4.67;;;;;;;21.98;40.52;95265.41;6158452;28;108919;-63
2023/01/22 12:45:16;;;;;;;5.77;5.13;;;;;;;21.99;40.71;95259.00;6159823;28;109332;-64
2023/01/22 12:48:26;;;;;;;7.13;5.00;;;;;;;21.97;40.96;95271.84;6155304;28;109006;-64
2023/01/22 12:51:36;;;;;;;6.17;5.10;;;;;;;21.96;40.80;95272.94;6152061;28;110781;-63
2023/01/22 12:54:39;;;;;;;7.17;4.93;;;;;;;21.95;40.77;95278.56;6161880;28;109511;-63
2023/01/22 12:57:42;;;;;;;5.80;4.87;;;;;;;21.96;41.17;95282.78;6161910;28;110704;-63
2023/01/22 13:01:00;;;;;;;5.03;4.53;;;;;;;21.81;41.06;95265.22;6162653;28;108735;-64
2023/01/22 13:04:05;;;;;;;6.57;4.50;;;;;;;21.88;41.02;95275.53;6151785;28;109105;-64
2023/01/22 13:07:22;;;;;;;5.13;4.73;;;;;;;21.94;41.30;95288.44;6158739;28;109059;-64
2023/01/22 13:10:29;;;;;;;7.37;5.20;;;;;;;21.91;41.25;95289.03;6161896;28;109148;-64
2023/01/22 13:13:42;;;;;;;6.97;5.83;;;;;;;21.93;41.99;95289.50;6146743;28;110109;-64
2023/01/22 13:16:54;;;;;;;4.90;4.40;;;;;;;21.95;41.08;95295.34;6161578;28;108960;-64
2023/01/22 13:20:01;;;;;;;5.63;4.97;;;;;;;21.95;41.49;95295.34;6159391;28;109029;-65
2023/01/22 13:23:06;;;;;;;5.63;4.50;;;;;;;21.90;40.99;95299.97;6162307;28;108949;-65
2023/01/22 13:26:16;;;;;;;4.80;4.00;;;;;;;21.84;40.48;95288.63;6152840;28;109582;-65
2023/01/22 13:29:22;;;;;;;5.10;4.60;;;;;;;21.83;40.26;95300.38;6155513;28;109043;-64
2023/01/22 13:32:30;;;;;;;6.60;5.07;;;;;;;21.84;40.80;95299.28;6161380;28;111047;-61
2023/01/22 13:35:36;;;;;;;8.10;5.03;;;;;;;21.92;40.99;95295.94;6145118;28;109197;-61
2023/01/22 13:38:39;;;;;;;7.60;5.20;;;;;;;21.96;41.40;95306.78;6146034;28;109168;-63
2023/01/22 13:41:43;;;;;;;5.63;5.10;;;;;;;22.02;41.61;95308.28;6156480;28;110196;-63
2023/01/22 13:44:49;;;;;;;5.20;4.70;;;;;;;22.04;41.12;95309.53;6155909;28;109188;-61
2023/01/22 13:47:57;;;;;;;9.50;4.63;;;;;;;22.07;41.07;95319.59;6149400;28;108952;-62
2023/01/22 13:51:04;;;;;;;8.37;5.00;;;;;;;22.08;41.51;95315.84;6161638;28;110040;-61
2023/01/22 13:54:19;;;;;;;6.80;4.40;;;;;;;22.09;41.56;95317.44;6159750;28;109889;-62
2023/01/22 14:01:48;;;;;;;5.47;4.40;;;;;;;22.15;41.06;95320.75;6150728;28;109138;-62
2023/01/22 14:04:52;;;;;;;4.47;4.17;;;;;;;22.15;41.20;95317.31;6139965;28;108975;-66
2023/01/22 14:08:05;;;;;;;6.83;5.00;;;;;;;22.17;41.24;95323.13;6158781;28;110444;-62
2023/01/22 14:11:08;;;;;;;4.97;4.27;;;;;;;22.15;41.45;95319.97;6152402;28;109091;-63
2023/01/22 14:14:17;;;;;;;6.83;4.87;;;;;;;22.13;41.44;95311.50;6150660;28;110048;-63
2023/01/22 14:17:25;;;;;;;4.33;3.93;;;;;;;22.13;41.41;95316.81;6152033;28;108965;-62
2023/01/22 14:20:30;;;;;;;4.70;4.13;;;;;;;22.13;41.36;95314.94;6155726;28;110049;-62
2023/01/22 14:23:38;;;;;;;4.90;4.40;;;;;;;22.13;41.57;95322.16;6143051;28;110961;-62
2023/01/22 14:26:44;;;;;;;4.80;3.90;;;;;;;22.11;41.58;95315.25;6147631;28;110258;-62
2023/01/22 14:29:47;;;;;;;4.77;4.20;;;;;;;22.10;41.84;95323.53;6150135;28;109383;-62
2023/01/22 14:32:50;;;;;;;4.20;3.80;;;;;;;22.05;41.87;95313.00;6152922;28;109127;-62
2023/01/22 14:35:55;;;;;;;4.53;4.13;;;;;;;22.09;41.42;95322.75;6142336;28;110654;-61